Aviation Digital Data Service (ADDS)

Output produced by METARs form (2213 UTC 16 February 2019)
found at http://www.aviationweather.gov/metar/data/
 
METAR text: FACT 162200Z 21013KT CAVOK 19/16 Q1018 NOSIG
Conditions at: FACT (CAPETOWN/DF MALA, ZA) observed 2200 UTC 16 February 2019
Temperature: 19.0°C (66°F)
Dewpoint: 16.0°C (61°F) [RH = 83%]
Pressure (altimeter): 30.06 inches Hg (1018.0 mb)
Winds: from the SSW (210 degrees) at 15 MPH (13 knots; 6.7 m/s)
Visibility: 6 or more miles (10+ km)
Ceiling: ceiling and visibility are OK
Clouds: unknown
Weather: no significant weather observed at this time

METAR text: FACT 162100Z 20013KT CAVOK 20/16 Q1018 NOSIG
Conditions at: FACT (CAPETOWN/DF MALA, ZA) observed 2100 UTC 16 February 2019
Temperature: 20.0°C (68°F)
Dewpoint: 16.0°C (61°F) [RH = 78%]
Pressure (altimeter): 30.06 inches Hg (1018.0 mb)
Winds: from the SSW (200 degrees) at 15 MPH (13 knots; 6.7 m/s)
Visibility: 6 or more miles (10+ km)
Ceiling: ceiling and visibility are OK
Clouds: unknown
Weather: no significant weather observed at this time

METAR text: FACT 162000Z 19015KT CAVOK 20/17 Q1018 NOSIG
Conditions at: FACT (CAPETOWN/DF MALA, ZA) observed 2000 UTC 16 February 2019
Temperature: 20.0°C (68°F)
Dewpoint: 17.0°C (63°F) [RH = 83%]
Pressure (altimeter): 30.06 inches Hg (1018.0 mb)
Winds: from the S (190 degrees) at 17 MPH (15 knots; 7.7 m/s)
Visibility: 6 or more miles (10+ km)
Ceiling: ceiling and visibility are OK
Clouds: unknown
Weather: no significant weather observed at this time

METAR text: FACT 161900Z 19015KT CAVOK 20/16 Q1017 NOSIG
Conditions at: FACT (CAPETOWN/DF MALA, ZA) observed 1900 UTC 16 February 2019
Temperature: 20.0°C (68°F)
Dewpoint: 16.0°C (61°F) [RH = 78%]
Pressure (altimeter): 30.03 inches Hg (1017.0 mb)
Winds: from the S (190 degrees) at 17 MPH (15 knots; 7.7 m/s)
Visibility: 6 or more miles (10+ km)
Ceiling: ceiling and visibility are OK
Clouds: unknown
Weather: no significant weather observed at this time

METAR text: FACT 161800Z 19015KT 9999 FEW025 20/17 Q1017 NOSIG
Conditions at: FACT (CAPETOWN/DF MALA, ZA) observed 1800 UTC 16 February 2019
Temperature: 20.0°C (68°F)
Dewpoint: 17.0°C (63°F) [RH = 83%]
Pressure (altimeter): 30.03 inches Hg (1017.0 mb)
Winds: from the S (190 degrees) at 17 MPH (15 knots; 7.7 m/s)
Visibility: 6 or more miles (10+ km)
Ceiling: at least 12,000 feet AGL
Clouds: few clouds at 2500 feet AGL
Weather: no significant weather observed at this time

METAR text: FACT 161700Z 18014KT CAVOK 22/18 Q1016 NOSIG
Conditions at: FACT (CAPETOWN/DF MALA, ZA) observed 1700 UTC 16 February 2019
Temperature: 22.0°C (72°F)
Dewpoint: 18.0°C (64°F) [RH = 78%]
Pressure (altimeter): 30.00 inches Hg (1016.0 mb)
Winds: from the S (180 degrees) at 16 MPH (14 knots; 7.2 m/s)
Visibility: 6 or more miles (10+ km)
Ceiling: ceiling and visibility are OK
Clouds: unknown
Weather: no significant weather observed at this time

METAR text: FACT 161600Z 18017KT 9999 FEW015 23/18 Q1016 NOSIG
Conditions at: FACT (CAPETOWN/DF MALA, ZA) observed 1600 UTC 16 February 2019
Temperature: 23.0°C (73°F)
Dewpoint: 18.0°C (64°F) [RH = 73%]
Pressure (altimeter): 30.00 inches Hg (1016.0 mb)
Winds: from the S (180 degrees) at 20 MPH (17 knots; 8.7 m/s)
Visibility: 6 or more miles (10+ km)
Ceiling: at least 12,000 feet AGL
Clouds: few clouds at 1500 feet AGL
Weather: no significant weather observed at this time

METAR text: FACT 161500Z 19018KT 9999 SCT017 24/18 Q1016 NOSIG
Conditions at: FACT (CAPETOWN/DF MALA, ZA) observed 1500 UTC 16 February 2019
Temperature: 24.0°C (75°F)
Dewpoint: 18.0°C (64°F) [RH = 69%]
Pressure (altimeter): 30.00 inches Hg (1016.0 mb)
Winds: from the S (190 degrees) at 21 MPH (18 knots; 9.3 m/s)
Visibility: 6 or more miles (10+ km)
Ceiling: at least 12,000 feet AGL
Clouds: scattered clouds at 1700 feet AGL
Weather: no significant weather observed at this time

METAR text: FACT 161400Z 19016KT 9999 FEW026 25/18 Q1016 NOSIG
Conditions at: FACT (CAPETOWN/DF MALA, ZA) observed 1400 UTC 16 February 2019
Temperature: 25.0°C (77°F)
Dewpoint: 18.0°C (64°F) [RH = 65%]
Pressure (altimeter): 30.00 inches Hg (1016.0 mb)
Winds: from the S (190 degrees) at 18 MPH (16 knots; 8.2 m/s)
Visibility: 6 or more miles (10+ km)
Ceiling: at least 12,000 feet AGL
Clouds: few clouds at 2600 feet AGL
Weather: no significant weather observed at this time

METAR text: FACT 161300Z 17012KT 140V200 9999 FEW024 SCT036 25/17 Q1016 NOSIG
Conditions at: FACT (CAPETOWN/DF MALA, ZA) observed 1300 UTC 16 February 2019
Temperature: 25.0°C (77°F)
Dewpoint: 17.0°C (63°F) [RH = 61%]
Pressure (altimeter): 30.00 inches Hg (1016.0 mb)
Winds: from the S (170 degrees) at 14 MPH (12 knots; 6.2 m/s)
Visibility: 6 or more miles (10+ km)
Ceiling: at least 12,000 feet AGL
Clouds: few clouds at 2400 feet AGL
scattered clouds at 3600 feet AGL
Weather: no significant weather observed at this time

METAR text: FACT 161200Z 16009KT 9999 FEW027 BKN032 24/17 Q1016 NOSIG
Conditions at: FACT (CAPETOWN/DF MALA, ZA) observed 1200 UTC 16 February 2019
Temperature: 24.0°C (75°F)
Dewpoint: 17.0°C (63°F) [RH = 65%]
Pressure (altimeter): 30.00 inches Hg (1016.0 mb)
Winds: from the SSE (160 degrees) at 10 MPH (9 knots; 4.6 m/s)
Visibility: 6 or more miles (10+ km)
Ceiling: 3200 feet AGL
Clouds: few clouds at 2700 feet AGL
broken clouds at 3200 feet AGL
Weather: no significant weather observed at this time

METAR text: FACT 161100Z 18008KT 9999 SCT025 BKN035 24/17 Q1016 NOSIG
Conditions at: FACT (CAPETOWN/DF MALA, ZA) observed 1100 UTC 16 February 2019
Temperature: 24.0°C (75°F)
Dewpoint: 17.0°C (63°F) [RH = 65%]
Pressure (altimeter): 30.00 inches Hg (1016.0 mb)
Winds: from the S (180 degrees) at 9 MPH (8 knots; 4.1 m/s)
Visibility: 6 or more miles (10+ km)
Ceiling: 3500 feet AGL
Clouds: scattered clouds at 2500 feet AGL
broken clouds at 3500 feet AGL
Weather: no significant weather observed at this time

METAR text: FACT 161000Z VRB02KT 9999 SCT025 BKN030 24/17 Q1016 NOSIG
Conditions at: FACT (CAPETOWN/DF MALA, ZA) observed 1000 UTC 16 February 2019
Temperature: 24.0°C (75°F)
Dewpoint: 17.0°C (63°F) [RH = 65%]
Pressure (altimeter): 30.00 inches Hg (1016.0 mb)
Winds: variable direction winds at 2 MPH (2 knots; 1.0 m/s)
Visibility: 6 or more miles (10+ km)
Ceiling: 3000 feet AGL
Clouds: scattered clouds at 2500 feet AGL
broken clouds at 3000 feet AGL
Weather: no significant weather observed at this time

METAR text: FACT 160900Z VRB03KT 9999 SCT023 BKN035 23/17 Q1017 NOSIG
Conditions at: FACT (CAPETOWN/DF MALA, ZA) observed 0900 UTC 16 February 2019
Temperature: 23.0°C (73°F)
Dewpoint: 17.0°C (63°F) [RH = 69%]
Pressure (altimeter): 30.03 inches Hg (1017.0 mb)
Winds: variable direction winds at 3 MPH (3 knots; 1.5 m/s)
Visibility: 6 or more miles (10+ km)
Ceiling: 3500 feet AGL
Clouds: scattered clouds at 2300 feet AGL
broken clouds at 3500 feet AGL
Weather: no significant weather observed at this time

METAR text: FACT 160800Z 32007KT 290V360 9999 FEW020 BKN030 22/17 Q1016 NOSIG
Conditions at: FACT (CAPETOWN/DF MALA, ZA) observed 0800 UTC 16 February 2019
Temperature: 22.0°C (72°F)
Dewpoint: 17.0°C (63°F) [RH = 73%]
Pressure (altimeter): 30.00 inches Hg (1016.0 mb)
Winds: from the NW (320 degrees) at 8 MPH (7 knots; 3.6 m/s)
Visibility: 6 or more miles (10+ km)
Ceiling: 3000 feet AGL
Clouds: few clouds at 2000 feet AGL
broken clouds at 3000 feet AGL
Weather: no significant weather observed at this time

METAR text: FACT 160757Z 32007KT 290V360 9999 FEW020 BKN030 22/17 Q1016 NOSIG
Conditions at: FACT (CAPETOWN/DF MALA, ZA) observed 0757 UTC 16 February 2019
Temperature: 22.0°C (72°F)
Dewpoint: 17.0°C (63°F) [RH = 73%]
Pressure (altimeter): 30.00 inches Hg (1016.0 mb)
Winds: from the NW (320 degrees) at 8 MPH (7 knots; 3.6 m/s)
Visibility: 6 or more miles (10+ km)
Ceiling: 3000 feet AGL
Clouds: few clouds at 2000 feet AGL
broken clouds at 3000 feet AGL
Weather: no significant weather observed at this time

METAR text: FACT 160700Z 34006KT 9999 BKN020 20/17 Q1016 NOSIG
Conditions at: FACT (CAPETOWN/DF MALA, ZA) observed 0700 UTC 16 February 2019
Temperature: 20.0°C (68°F)
Dewpoint: 17.0°C (63°F) [RH = 83%]
Pressure (altimeter): 30.00 inches Hg (1016.0 mb)
Winds: from the NNW (340 degrees) at 7 MPH (6 knots; 3.1 m/s)
Visibility: 6 or more miles (10+ km)
Ceiling: 2000 feet AGL
Clouds: broken clouds at 2000 feet AGL
Weather: no significant weather observed at this time

METAR text: FACT 160600Z 33007KT 9999 FEW010 BKN020 20/17 Q1016 NOSIG
Conditions at: FACT (CAPETOWN/DF MALA, ZA) observed 0600 UTC 16 February 2019
Temperature: 20.0°C (68°F)
Dewpoint: 17.0°C (63°F) [RH = 83%]
Pressure (altimeter): 30.00 inches Hg (1016.0 mb)
Winds: from the NNW (330 degrees) at 8 MPH (7 knots; 3.6 m/s)
Visibility: 6 or more miles (10+ km)
Ceiling: 2000 feet AGL
Clouds: few clouds at 1000 feet AGL
broken clouds at 2000 feet AGL
Weather: no significant weather observed at this time

METAR text: FACT 160557Z 33007KT 9999 FEW010 BKN020 20/17 Q1016 NOSIG
Conditions at: FACT (CAPETOWN/DF MALA, ZA) observed 0557 UTC 16 February 2019
Temperature: 20.0°C (68°F)
Dewpoint: 17.0°C (63°F) [RH = 83%]
Pressure (altimeter): 30.00 inches Hg (1016.0 mb)
Winds: from the NNW (330 degrees) at 8 MPH (7 knots; 3.6 m/s)
Visibility: 6 or more miles (10+ km)
Ceiling: 2000 feet AGL
Clouds: few clouds at 1000 feet AGL
broken clouds at 2000 feet AGL
Weather: no significant weather observed at this time

METAR text: FACT 160500Z 32006KT 290V060 9999 BKN015 19/17 Q1015 NOSIG
Conditions at: FACT (CAPETOWN/DF MALA, ZA) observed 0500 UTC 16 February 2019
Temperature: 19.0°C (66°F)
Dewpoint: 17.0°C (63°F) [RH = 88%]
Pressure (altimeter): 29.97 inches Hg (1015.0 mb)
Winds: from the NW (320 degrees) at 7 MPH (6 knots; 3.1 m/s)
Visibility: 6 or more miles (10+ km)
Ceiling: 1500 feet AGL
Clouds: broken clouds at 1500 feet AGL
Weather: no significant weather observed at this time

METAR text: FACT 160456Z 32006KT 290V060 9999 BKN015 19/17 Q1015 NOSIG
Conditions at: FACT (CAPETOWN/DF MALA, ZA) observed 0456 UTC 16 February 2019
Temperature: 19.0°C (66°F)
Dewpoint: 17.0°C (63°F) [RH = 88%]
Pressure (altimeter): 29.97 inches Hg (1015.0 mb)
Winds: from the NW (320 degrees) at 7 MPH (6 knots; 3.1 m/s)
Visibility: 6 or more miles (10+ km)
Ceiling: 1500 feet AGL
Clouds: broken clouds at 1500 feet AGL
Weather: no significant weather observed at this time

METAR text: FACT 160424Z 31006KT 8000 BKN013 19/17 Q1014 NOSIG
Conditions at: FACT (CAPETOWN/DF MALA, ZA) observed 0424 UTC 16 February 2019
Temperature: 19.0°C (66°F)
Dewpoint: 17.0°C (63°F) [RH = 88%]
Pressure (altimeter): 29.94 inches Hg (1014.0 mb)
Winds: from the NW (310 degrees) at 7 MPH (6 knots; 3.1 m/s)
Visibility: 5 miles ( 8 km)
Ceiling: 1300 feet AGL
Clouds: broken clouds at 1300 feet AGL
Weather: no significant weather observed at this time

METAR text: FACT 160400Z 33005KT 7000 BKN006 18/17 Q1014 TEMPO 1000 BCFG
Conditions at: FACT (CAPETOWN/DF MALA, ZA) observed 0400 UTC 16 February 2019
Temperature: 18.0°C (64°F)
Dewpoint: 17.0°C (63°F) [RH = 94%]
Pressure (altimeter): 29.94 inches Hg (1014.0 mb)
Winds: from the NNW (330 degrees) at 6 MPH (5 knots; 2.6 m/s)
Visibility: 4 miles ( 7 km)
Ceiling: 600 feet AGL
Clouds: broken clouds at 600 feet AGL
Weather: no significant weather observed at this time

METAR text: FACT 160327Z 32008KT 7000 BKN006 18/17 Q1014 TEMPO 1000 BCFG
Conditions at: FACT (CAPETOWN/DF MALA, ZA) observed 0327 UTC 16 February 2019
Temperature: 18.0°C (64°F)
Dewpoint: 17.0°C (63°F) [RH = 94%]
Pressure (altimeter): 29.94 inches Hg (1014.0 mb)
Winds: from the NW (320 degrees) at 9 MPH (8 knots; 4.1 m/s)
Visibility: 4 miles ( 7 km)
Ceiling: 600 feet AGL
Clouds: broken clouds at 600 feet AGL
Weather: no significant weather observed at this time

METAR text: FACT 160300Z 32008KT 4000 BR BKN005 18/18 Q1013 TEMPO 0500 FG
Conditions at: FACT (CAPETOWN/DF MALA, ZA) observed 0300 UTC 16 February 2019
Temperature: 18.0°C (64°F)
Dewpoint: 18.0°C (64°F) [RH = 100%]
Pressure (altimeter): 29.91 inches Hg (1013.0 mb)
Winds: from the NW (320 degrees) at 9 MPH (8 knots; 4.1 m/s)
Visibility: 2.49 miles (4.01 km)
Ceiling: 500 feet AGL
Clouds: broken clouds at 500 feet AGL
Weather: BR  (mist)

METAR text: FACT 160214Z 31007KT 4000 BR BKN003 17/17 Q1013 TEMPO 0500 FG
Conditions at: FACT (CAPETOWN/DF MALA, ZA) observed 0214 UTC 16 February 2019
Temperature: 17.0°C (63°F)
Dewpoint: 17.0°C (63°F) [RH = 100%]
Pressure (altimeter): 29.91 inches Hg (1013.0 mb)
Winds: from the NW (310 degrees) at 8 MPH (7 knots; 3.6 m/s)
Visibility: 2.49 miles (4.01 km)
Ceiling: 300 feet AGL
Clouds: broken clouds at 300 feet AGL
Weather: BR  (mist)

METAR text: FACT 160200Z 31007KT 4000 BR BKN003 17/17 Q1013 TEMPO 0500 FG
Conditions at: FACT (CAPETOWN/DF MALA, ZA) observed 0200 UTC 16 February 2019
Temperature: 17.0°C (63°F)
Dewpoint: 17.0°C (63°F) [RH = 100%]
Pressure (altimeter): 29.91 inches Hg (1013.0 mb)
Winds: from the NW (310 degrees) at 8 MPH (7 knots; 3.6 m/s)
Visibility: 2.49 miles (4.01 km)
Ceiling: 300 feet AGL
Clouds: broken clouds at 300 feet AGL
Weather: BR  (mist)

METAR text: FACT 160100Z 31007KT 0800 FG VV001 16/16 Q1013 TEMPO 0500
Conditions at: FACT (CAPETOWN/DF MALA, ZA) observed 0100 UTC 16 February 2019
Temperature: 16.0°C (61°F)
Dewpoint: 16.0°C (61°F) [RH = 100%]
Pressure (altimeter): 29.91 inches Hg (1013.0 mb)
Winds: from the NW (310 degrees) at 8 MPH (7 knots; 3.6 m/s)
Visibility: 0.50 miles (0.80 km)
Ceiling: indefinite ceiling with vertical visibility of 100 feet AGL
Clouds: obscured sky
Weather: FG  (fog)

METAR text: FACT 160000Z 31007KT 6000 OVC004 17/17 Q1014 TEMPO 0500 FG
Conditions at: FACT (CAPETOWN/DF MALA, ZA) observed 0000 UTC 16 February 2019
Temperature: 17.0°C (63°F)
Dewpoint: 17.0°C (63°F) [RH = 100%]
Pressure (altimeter): 29.94 inches Hg (1014.0 mb)
Winds: from the NW (310 degrees) at 8 MPH (7 knots; 3.6 m/s)
Visibility: 4 miles ( 6 km)
Ceiling: 400 feet AGL
Clouds: overcast cloud deck at 400 feet AGL
Weather: no significant weather observed at this time

METAR text: FACT 152300Z VRB03KT 7000 OVC003 18/18 Q1014 TEMPO 0500 FG
Conditions at: FACT (CAPETOWN/DF MALA, ZA) observed 2300 UTC 15 February 2019
Temperature: 18.0°C (64°F)
Dewpoint: 18.0°C (64°F) [RH = 100%]
Pressure (altimeter): 29.94 inches Hg (1014.0 mb)
Winds: variable direction winds at 3 MPH (3 knots; 1.5 m/s)
Visibility: 4 miles ( 7 km)
Ceiling: 300 feet AGL
Clouds: overcast cloud deck at 300 feet AGL
Weather: no significant weather observed at this time

METAR text: FACT 152200Z 33005KT 7000 BKN004 17/16 Q1013 TEMPO 0500 FG
Conditions at: FACT (CAPETOWN/DF MALA, ZA) observed 2200 UTC 15 February 2019
Temperature: 17.0°C (63°F)
Dewpoint: 16.0°C (61°F) [RH = 94%]
Pressure (altimeter): 29.91 inches Hg (1013.0 mb)
Winds: from the NNW (330 degrees) at 6 MPH (5 knots; 2.6 m/s)
Visibility: 4 miles ( 7 km)
Ceiling: 400 feet AGL
Clouds: broken clouds at 400 feet AGL
Weather: no significant weather observed at this time

METAR text: FACT 152155Z 33005KT 7000 BKN004 17/16 Q1013 TEMPO 0500 FG
Conditions at: FACT (CAPETOWN/DF MALA, ZA) observed 2155 UTC 15 February 2019
Temperature: 17.0°C (63°F)
Dewpoint: 16.0°C (61°F) [RH = 94%]
Pressure (altimeter): 29.91 inches Hg (1013.0 mb)
Winds: from the NNW (330 degrees) at 6 MPH (5 knots; 2.6 m/s)
Visibility: 4 miles ( 7 km)
Ceiling: 400 feet AGL
Clouds: broken clouds at 400 feet AGL
Weather: no significant weather observed at this time

METAR text: FACT 152100Z 24007KT 0800 R19/0800 FG OVC003 19/19 Q1013 TEMPO 0500
Conditions at: FACT (CAPETOWN/DF MALA, ZA) observed 2100 UTC 15 February 2019
Temperature: 19.0°C (66°F)
Dewpoint: 19.0°C (66°F) [RH = 100%]
Pressure (altimeter): 29.91 inches Hg (1013.0 mb)
Winds: from the WSW (240 degrees) at 8 MPH (7 knots; 3.6 m/s)
Visibility: 0.50 miles (0.80 km)
Ceiling: 300 feet AGL
Clouds: overcast cloud deck at 300 feet AGL
Weather: FG  (fog)

METAR text: FACT 152014Z 21008KT 0800 FG OVC003 20/20 Q1013 TEMPO 0500
Conditions at: FACT (CAPETOWN/DF MALA, ZA) observed 2014 UTC 15 February 2019
Temperature: 20.0°C (68°F)
Dewpoint: 20.0°C (68°F) [RH = 100%]
Pressure (altimeter): 29.91 inches Hg (1013.0 mb)
Winds: from the SSW (210 degrees) at 9 MPH (8 knots; 4.1 m/s)
Visibility: 0.50 miles (0.80 km)
Ceiling: 300 feet AGL
Clouds: overcast cloud deck at 300 feet AGL
Weather: FG  (fog)

METAR text: FACT 152000Z 21008KT 7000 BKN008 20/19 Q1012 BECMG 5000 BR BKN005
Conditions at: FACT (CAPETOWN/DF MALA, ZA) observed 2000 UTC 15 February 2019
Temperature: 20.0°C (68°F)
Dewpoint: 19.0°C (66°F) [RH = 94%]
Pressure (altimeter): 29.88 inches Hg (1012.0 mb)
Winds: from the SSW (210 degrees) at 9 MPH (8 knots; 4.1 m/s)
Visibility: 4 miles ( 7 km)
Ceiling: 800 feet AGL
Clouds: broken clouds at 800 feet AGL
Weather: no significant weather observed at this time

METAR text: FACT 151900Z 20009KT 9999 BKN008 21/19 Q1012 BECMG 5000 BR BKN005
Conditions at: FACT (CAPETOWN/DF MALA, ZA) observed 1900 UTC 15 February 2019
Temperature: 21.0°C (70°F)
Dewpoint: 19.0°C (66°F) [RH = 88%]
Pressure (altimeter): 29.88 inches Hg (1012.0 mb)
Winds: from the SSW (200 degrees) at 10 MPH (9 knots; 4.6 m/s)
Visibility: 6 or more miles (10+ km)
Ceiling: 800 feet AGL
Clouds: broken clouds at 800 feet AGL
Weather: no significant weather observed at this time

METAR text: FACT 151859Z 20009KT 9999 BKN008 21/19 Q1012 BECMG 5000 BR BKN005
Conditions at: FACT (CAPETOWN/DF MALA, ZA) observed 1859 UTC 15 February 2019
Temperature: 21.0°C (70°F)
Dewpoint: 19.0°C (66°F) [RH = 88%]
Pressure (altimeter): 29.88 inches Hg (1012.0 mb)
Winds: from the SSW (200 degrees) at 10 MPH (9 knots; 4.6 m/s)
Visibility: 6 or more miles (10+ km)
Ceiling: 800 feet AGL
Clouds: broken clouds at 800 feet AGL
Weather: no significant weather observed at this time

METAR text: FACT 151800Z 17005KT CAVOK 21/18 Q1012 NOSIG
Conditions at: FACT (CAPETOWN/DF MALA, ZA) observed 1800 UTC 15 February 2019
Temperature: 21.0°C (70°F)
Dewpoint: 18.0°C (64°F) [RH = 83%]
Pressure (altimeter): 29.88 inches Hg (1012.0 mb)
Winds: from the S (170 degrees) at 6 MPH (5 knots; 2.6 m/s)
Visibility: 6 or more miles (10+ km)
Ceiling: ceiling and visibility are OK
Clouds: unknown
Weather: no significant weather observed at this time

METAR text: FACT 151700Z 19006KT 140V230 CAVOK 23/18 Q1011 NOSIG
Conditions at: FACT (CAPETOWN/DF MALA, ZA) observed 1700 UTC 15 February 2019
Temperature: 23.0°C (73°F)
Dewpoint: 18.0°C (64°F) [RH = 73%]
Pressure (altimeter): 29.85 inches Hg (1011.0 mb)
Winds: from the S (190 degrees) at 7 MPH (6 knots; 3.1 m/s)
Visibility: 6 or more miles (10+ km)
Ceiling: ceiling and visibility are OK
Clouds: unknown
Weather: no significant weather observed at this time

METAR text: FACT 151500Z 16010KT CAVOK 24/17 Q1011 NOSIG
Conditions at: FACT (CAPETOWN/DF MALA, ZA) observed 1500 UTC 15 February 2019
Temperature: 24.0°C (75°F)
Dewpoint: 17.0°C (63°F) [RH = 65%]
Pressure (altimeter): 29.85 inches Hg (1011.0 mb)
Winds: from the SSE (160 degrees) at 12 MPH (10 knots; 5.1 m/s)
Visibility: 6 or more miles (10+ km)
Ceiling: ceiling and visibility are OK
Clouds: unknown
Weather: no significant weather observed at this time

METAR text: FACT 151400Z 16008KT 120V200 CAVOK 26/16 Q1011 NOSIG
Conditions at: FACT (CAPETOWN/DF MALA, ZA) observed 1400 UTC 15 February 2019
Temperature: 26.0°C (79°F)
Dewpoint: 16.0°C (61°F) [RH = 54%]
Pressure (altimeter): 29.85 inches Hg (1011.0 mb)
Winds: from the SSE (160 degrees) at 9 MPH (8 knots; 4.1 m/s)
Visibility: 6 or more miles (10+ km)
Ceiling: ceiling and visibility are OK
Clouds: unknown
Weather: no significant weather observed at this time

METAR text: FACT 151200Z 16009KT 120V220 CAVOK 26/15 Q1012 NOSIG
Conditions at: FACT (CAPETOWN/DF MALA, ZA) observed 1200 UTC 15 February 2019
Temperature: 26.0°C (79°F)
Dewpoint: 15.0°C (59°F) [RH = 51%]
Pressure (altimeter): 29.88 inches Hg (1012.0 mb)
Winds: from the SSE (160 degrees) at 10 MPH (9 knots; 4.6 m/s)
Visibility: 6 or more miles (10+ km)
Ceiling: ceiling and visibility are OK
Clouds: unknown
Weather: no significant weather observed at this time

METAR text: FACT 151100Z 16009KT 130V190 CAVOK 25/15 Q1012 NOSIG
Conditions at: FACT (CAPETOWN/DF MALA, ZA) observed 1100 UTC 15 February 2019
Temperature: 25.0°C (77°F)
Dewpoint: 15.0°C (59°F) [RH = 54%]
Pressure (altimeter): 29.88 inches Hg (1012.0 mb)
Winds: from the SSE (160 degrees) at 10 MPH (9 knots; 4.6 m/s)
Visibility: 6 or more miles (10+ km)
Ceiling: ceiling and visibility are OK
Clouds: unknown
Weather: no significant weather observed at this time

Forecast for: FACT (CAPETOWN/DF MALA, ZA)
Text: TAF FACT 162200Z 1700/1806 18014KT CAVOK TX28/1712Z TN17/1704Z
Forecast period: 0000 to 1000 UTC 17 February 2019
Forecast type: FROM: standard forecast or significant change
Winds: from the S (180 degrees) at 16 MPH (14 knots; 7.2 m/s)
Visibility: 6 or more miles 10+ km)
Ceiling: unknown
Clouds: missing
Weather: no significant weather forecast for this period
Text: BECMG 1710/1712 17024KT
Forecast period: 1000 to 1900 UTC 17 February 2019
Forecast type: BECOMING: Conditions expected to become as follows by 1200 UTC 17 February 2019
Winds: from the S (170 degrees) at 28 MPH (24 knots; 12.3 m/s)
Visibility: 6 or more miles 10+ km)
Ceiling: unknown
Clouds: missing
Weather: no significant weather forecast for this period
Text: BECMG 1719/1721 19014KT
Forecast period: 1900 UTC 17 February 2019 to 0600 UTC 18 February 2019
Forecast type: BECOMING: Conditions expected to become as follows by 2100 UTC 17 February 2019
Winds: from the S (190 degrees) at 16 MPH (14 knots; 7.2 m/s)
Visibility: 6 or more miles 10+ km)
Ceiling: unknown
Clouds: missing
Weather: no significant weather forecast for this period